Causey, NM

3:33 PM MDT on July 25, 2014 (GMT -0600)
WT_Meso 2 MI. SW OF DORA, NM (MDORN5) Elev 4339 ft | 33.92 °N, 103.36 °W | Change Station

Current weather conditions updated 38 minutes ago

Clear
Clear
93 °F
Feels Like 90 °F
N
8
Wind Variable Wind from SSE
Gusts 13.0 mph

Today is forecast to be Warmer than yesterday.

Today
High -- | Low -- °F
--% Chance of Precip.
Yesterday
High -- | Low -- °F
Precip. -- in
5:59 AM 7:58 PM
Waning Crescent, 1% visible
Pressure 29.86 in
Visibility 10.0 miles
Clouds Clear
Heat Index 90 °F
Dew Point 49 °F
Humidity 23%
Rainfall -999.00 in
Snow Depth Not available.
UV 10 out of 12
Pollen 4.20 out of 12
Air Quality Not available.
Flu Activity Not available.
METAR KCVS 252058Z AUTO 21008G18KT 10SM CLR 36/11 A3007 RMK AO2 SLP111 T03630112 57017 $

More Conditions Fewer Conditions

Pressure 29.86 in
Visibility 10.0 miles
Clouds Clear
Heat Index 90 °F
Dew Point 49 °F
Humidity 23%
Rainfall -999.00 in
Snow Depth Not available.
UV 10 out of 12
Pollen 4.20 out of 12
Air Quality Not available.
Flu Activity Not available.
METAR KCVS 252058Z AUTO 21008G18KT 10SM CLR 36/11 A3007 RMK AO2 SLP111 T03630112 57017 $

More Conditions Fewer Conditions

10-Day Weather Forecast

Almanac

Astronomy

Jul. 25, 2014 Rise Set
Actual Time 5:59 AM MDT 7:58 PM MDT
Civil Twilight 5:31 AM MDT 8:26 PM MDT
Nautical Twilight 4:57 AM MDT 8:59 PM MDT
Astronomical Twilight 4:21 AM MDT 9:35 PM MDT
Moon 4:58 AM MDT 6:59 PM MDT
Length of Visible Light 14h 54m
Length of Day
13h 59m
Tomorrow will be 1m 23s shorter.
Waning Crescent, 1% of the Moon is Illuminated
Today
Waning Crescent
Jul 26
New
Aug 3
First Quarter
Aug 10
Full
Aug 17
Last Quarter

Today's Extremes

State Highs State Lows

Community

WunderPhotos

Upload Photos

1,737,411 photos uploaded!

Nearby

Snow Depth

Station Depth Elevation
Sierra Blanca 0 in 10280 ft
Wesner Springs 0 in 11120 ft
Santa Fe 0 in 11445 ft

Earthquake Activity

City Distance Mag. Time & Date
No recent earthquake activity has been reported nearby.
Minimum magnitude displayed is 2.5.

Coastal Water Temperatures

Place Temperature
No Stations Reporting

Nearby Weather Stations

Station Location Temp. Heat Index Dew Point Humidity Wind Precip. Elev Updated Type
WT_Meso 2 MI. SW OF DORA, NM, Dora, NM 93 °F 90 °F 49 °F 23% SSE  at  8 mph 0.00 in / hr 4339 ft 2:55 PM MDT MADIS
S of ENMU, Portales, NM 102.8 °F 100 °F 50 °F 18% North  at  6.3 mph 0.00 in / hr 4078 ft 3:33 PM MDT Rapid Fire
WT_Meso Morton 1NE, Morton, TX 99 °F 96 °F 49 °F 19% SE  at  13 mph 0.00 in / hr 3753 ft 3:55 PM CDT MADIS
ENMU, Portales, NM 97.4 °F 94 °F 49 °F 19% SW  at  7.0 mph 0.00 in / hr 4026 ft 3:24 PM MDT Normal

Show More Stations Show Fewer Stations